Time;durP1;ratioP1;P1;durP2;ratioP2;P2;SDS_P1;SDS_P2;PMS_P1;PMS_P2;Temp;Humidity;BMP_temperature;BMP_pressure;BME280_temperature;BME280_humidity;BME280_pressure;Samples;Min_cycle;Max_cycle;Signal;HPM_P1;HPM_P2
2022/03/17 00:00:26;;;;;;;25.83;15.23;;;;;;;7.12;41.10;95981.41;5039356;28;20115;-65
2022/03/17 00:02:52;;;;;;;17.88;14.35;;;;;;;7.13;41.42;95988.38;5041386;28;20552;-66
2022/03/17 00:05:17;;;;;;;17.98;15.20;;;;;;;7.31;41.17;95976.16;5040697;28;20117;-66
2022/03/17 00:07:43;;;;;;;17.48;13.55;;;;;;;6.91;41.57;95991.38;5027789;28;20191;-66
2022/03/17 00:10:15;;;;;;;18.20;14.65;;;;;;;6.75;42.08;95982.25;5037880;28;20209;-66
2022/03/17 00:12:42;;;;;;;20.52;15.18;;;;;;;6.77;41.88;95986.41;5038946;28;20120;-64
2022/03/17 00:15:08;;;;;;;19.23;14.95;;;;;;;6.82;42.40;95983.34;5039814;28;20160;-65
2022/03/17 00:17:33;;;;;;;17.70;13.35;;;;;;;6.82;41.67;95990.44;5037665;28;20109;-64
2022/03/17 00:19:59;;;;;;;17.42;13.45;;;;;;;6.85;41.47;95977.78;5039663;28;20139;-65
2022/03/17 00:22:24;;;;;;;20.80;14.93;;;;;;;7.12;41.20;95973.47;5040598;28;21026;-65
2022/03/17 00:24:50;;;;;;;20.58;14.52;;;;;;;6.75;41.89;95971.66;5040520;28;20105;-65
2022/03/17 00:27:15;;;;;;;16.98;13.52;;;;;;;6.92;41.31;95964.78;5040950;28;20074;-67
2022/03/17 00:29:40;;;;;;;17.85;14.27;;;;;;;6.88;41.49;95972.16;5040748;28;20109;-66
2022/03/17 00:32:07;;;;;;;20.38;15.02;;;;;;;6.88;42.02;95976.63;5040539;28;20139;-66
2022/03/17 00:34:33;;;;;;;19.42;14.25;;;;;;;7.08;40.88;95979.19;5039165;28;20406;-65
2022/03/17 00:36:59;;;;;;;19.02;14.57;;;;;;;6.95;41.27;95969.78;5040638;28;20536;-63
2022/03/17 00:39:25;;;;;;;19.08;14.00;;;;;;;7.08;40.89;95976.53;5017167;28;20062;-66
2022/03/17 00:41:50;;;;;;;18.67;14.38;;;;;;;6.98;41.20;95973.94;5038928;28;20474;-66
2022/03/17 00:44:15;;;;;;;17.83;14.35;;;;;;;7.02;41.36;95984.09;5040386;28;20092;-65
2022/03/17 00:46:41;;;;;;;18.48;13.88;;;;;;;6.72;41.71;95975.44;5040701;28;20081;-68
2022/03/17 00:49:07;;;;;;;21.00;16.27;;;;;;;7.10;40.70;95975.41;5040447;28;20101;-66
2022/03/17 00:51:32;;;;;;;18.85;14.48;;;;;;;7.13;40.91;95980.44;5032877;28;20081;-66
2022/03/17 00:53:58;;;;;;;20.58;17.33;;;;;;;7.07;41.42;95982.84;5040243;28;20098;-66
2022/03/17 00:56:23;;;;;;;19.85;14.50;;;;;;;6.98;41.06;95987.19;5040555;28;20081;-66
2022/03/17 00:58:49;;;;;;;19.27;15.90;;;;;;;7.09;41.12;95991.44;5040829;28;20077;-64
2022/03/17 01:01:15;;;;;;;20.83;14.90;;;;;;;7.13;40.84;95992.81;5023618;28;20167;-66
2022/03/17 01:03:44;;;;;;;21.02;15.77;;;;;;;7.31;39.94;95995.50;5043402;28;20160;-66
2022/03/17 01:06:10;;;;;;;22.35;16.90;;;;;;;7.78;40.02;96005.16;5043896;28;20527;-66
2022/03/17 01:08:36;;;;;;;19.75;14.60;;;;;;;7.49;39.95;96005.31;5027842;28;20157;-65
2022/03/17 01:11:01;;;;;;;19.50;15.00;;;;;;;7.04;40.69;96013.06;5044465;28;20093;-68
2022/03/17 01:13:26;;;;;;;20.58;16.88;;;;;;;7.49;40.35;96016.75;5042457;28;20097;-66
2022/03/17 01:15:52;;;;;;;20.05;15.88;;;;;;;7.91;39.10;96019.84;5044830;28;20089;-67
2022/03/17 01:18:17;;;;;;;18.15;14.88;;;;;;;7.50;39.92;96018.41;5042558;28;20109;-65
2022/03/17 01:20:44;;;;;;;20.27;16.20;;;;;;;7.91;39.32;96015.38;5044263;28;20106;-66
2022/03/17 01:23:10;;;;;;;20.25;17.25;;;;;;;7.80;39.45;96020.91;5044328;28;20547;-64
2022/03/17 01:25:35;;;;;;;21.40;17.70;;;;;;;7.92;39.01;96018.84;5044073;28;20256;-66
2022/03/17 01:28:00;;;;;;;19.80;15.98;;;;;;;7.90;39.13;96015.53;5044167;28;20658;-64
2022/03/17 01:30:26;;;;;;;20.48;15.98;;;;;;;7.88;39.53;96015.69;5043895;28;20113;-67
2022/03/17 01:32:51;;;;;;;25.60;18.50;;;;;;;7.91;39.43;96015.38;5043708;28;20112;-65
2022/03/17 01:35:17;;;;;;;22.45;17.27;;;;;;;7.60;39.61;96018.34;5044358;28;20085;-68
2022/03/17 01:37:42;;;;;;;22.52;16.92;;;;;;;7.33;40.32;96011.25;5040195;28;20112;-65
2022/03/17 01:40:08;;;;;;;21.13;16.90;;;;;;;7.82;39.21;96004.84;5025124;28;20099;-64
2022/03/17 01:42:34;;;;;;;20.90;16.90;;;;;;;7.58;39.92;96004.41;5043669;28;20323;-65
2022/03/17 01:45:00;;;;;;;22.70;17.45;;;;;;;7.84;39.39;96010.81;5043817;28;20459;-65
2022/03/17 01:47:28;;;;;;;23.23;17.75;;;;;;;7.93;39.06;96012.59;5042021;28;20091;-67
2022/03/17 01:50:13;;;;;;;25.65;18.92;;;;;;;7.92;39.29;96006.44;5036409;28;20124;-65
2022/03/17 01:52:39;;;;;;;25.95;18.60;;;;;;;7.86;39.10;96009.69;5043313;28;20125;-65
2022/03/17 01:55:05;;;;;;;21.75;17.70;;;;;;;7.85;39.45;96009.88;5043753;28;20123;-66
2022/03/17 01:57:31;;;;;;;19.17;15.45;;;;;;;7.70;39.42;96015.66;5043104;28;20105;-65
2022/03/17 01:59:57;;;;;;;23.20;18.52;;;;;;;7.87;38.82;96013.19;5043451;28;20111;-67
2022/03/17 02:02:24;;;;;;;18.83;15.30;;;;;;;7.99;39.01;96011.97;5041200;28;20113;-65
2022/03/17 02:04:50;;;;;;;22.42;18.02;;;;;;;7.97;38.88;96015.75;5043264;28;20178;-64
2022/03/17 02:07:16;;;;;;;20.88;17.70;;;;;;;7.88;39.01;96017.50;5032849;28;20169;-67
2022/03/17 02:09:42;;;;;;;22.35;18.52;;;;;;;7.72;39.46;96026.91;5035517;28;20155;-67
2022/03/17 02:14:53;;;;;;;20.33;16.58;;;;;;;7.93;39.13;96023.19;5040969;28;20608;-68
2022/03/17 02:17:19;;;;;;;20.83;16.67;;;;;;;7.98;38.55;96010.31;5038469;28;20112;-65
2022/03/17 02:19:44;;;;;;;20.92;16.75;;;;;;;7.56;39.40;96008.19;5028243;28;20077;-66
2022/03/17 02:22:14;;;;;;;24.98;17.65;;;;;;;7.87;39.09;96007.88;5042803;28;20372;-65
2022/03/17 02:27:25;;;;;;;23.38;18.50;;;;;;;7.99;39.03;96006.66;5042472;28;20490;-66
2022/03/17 02:29:51;;;;;;;23.90;19.05;;;;;;;7.97;38.97;95999.84;5024433;28;20100;-65
2022/03/17 02:32:17;;;;;;;23.05;17.58;;;;;;;7.91;38.93;95999.47;5042460;28;20073;-66
2022/03/17 02:34:44;;;;;;;23.83;18.40;;;;;;;7.73;39.19;95993.31;5043319;28;20105;-65
2022/03/17 02:37:09;;;;;;;22.23;18.17;;;;;;;7.78;39.49;95996.34;5042538;28;20101;-65
2022/03/17 02:39:35;;;;;;;20.25;17.40;;;;;;;7.88;39.07;95989.16;5019370;28;20104;-66
2022/03/17 02:42:00;;;;;;;20.33;16.33;;;;;;;7.82;39.12;95997.72;5042559;28;20100;-66
2022/03/17 02:44:26;;;;;;;29.50;18.13;;;;;;;7.94;39.02;95994.84;5042164;28;20152;-66
2022/03/17 02:46:51;;;;;;;28.48;19.52;;;;;;;7.96;39.13;95999.00;5042741;28;20135;-67
2022/03/17 02:49:18;;;;;;;24.90;19.17;;;;;;;7.76;39.40;95995.66;5042400;28;20167;-64
2022/03/17 02:51:43;;;;;;;21.98;16.95;;;;;;;7.77;39.31;95992.03;5035365;28;20615;-66
2022/03/17 02:54:08;;;;;;;22.52;17.67;;;;;;;7.96;38.77;96004.31;5042444;28;20449;-67
2022/03/17 02:56:34;;;;;;;26.25;19.00;;;;;;;7.97;38.98;95997.19;5041911;28;20101;-66
2022/03/17 02:58:59;;;;;;;20.98;17.70;;;;;;;7.95;38.81;96001.84;5042779;28;20077;-66
2022/03/17 03:01:25;;;;;;;19.85;16.73;;;;;;;7.77;38.78;96000.84;5042604;28;20105;-66
2022/03/17 03:03:50;;;;;;;21.23;18.65;;;;;;;8.00;38.74;96003.03;5042528;28;20085;-66
2022/03/17 03:06:15;;;;;;;22.17;18.48;;;;;;;7.98;38.85;96007.66;5041047;28;20105;-65
2022/03/17 03:08:41;;;;;;;22.25;18.23;;;;;;;8.00;38.64;96013.66;5027052;28;20108;-67
2022/03/17 03:11:06;;;;;;;22.05;17.70;;;;;;;8.08;38.72;96018.19;5042847;28;20097;-65
2022/03/17 03:13:32;;;;;;;23.05;18.23;;;;;;;8.04;38.69;96007.06;5040111;28;20096;-66
2022/03/17 03:15:57;;;;;;;22.52;17.25;;;;;;;8.02;38.85;96019.63;5042871;28;20076;-67
2022/03/17 03:18:22;;;;;;;22.75;18.92;;;;;;;7.95;38.78;96004.47;5040334;28;20093;-65
2022/03/17 03:20:48;;;;;;;27.10;20.55;;;;;;;7.81;39.05;95992.56;5042180;28;20725;-66
2022/03/17 03:23:13;;;;;;;26.25;19.33;;;;;;;7.80;39.31;95997.06;5042934;28;20089;-66
2022/03/17 03:25:39;;;;;;;22.30;17.73;;;;;;;7.89;39.17;96009.38;5041765;28;20140;-66
2022/03/17 03:28:05;;;;;;;26.10;19.73;;;;;;;7.91;38.81;96003.94;5042717;28;20609;-66
2022/03/17 03:30:31;;;;;;;18.85;15.75;;;;;;;7.66;39.11;96006.34;5042118;28;20477;-69
2022/03/17 03:32:56;;;;;;;24.40;18.65;;;;;;;7.88;39.11;96020.13;5041934;28;20104;-66
2022/03/17 03:38:06;;;;;;;23.55;19.27;;;;;;;8.02;38.69;96021.44;5031992;28;20117;-65
2022/03/17 03:40:31;;;;;;;23.85;19.27;;;;;;;7.75;39.07;96026.63;5029599;28;20074;-67
2022/03/17 03:42:57;;;;;;;21.42;18.50;;;;;;;8.04;38.58;96025.63;5042247;28;20151;-66
2022/03/17 03:45:22;;;;;;;22.27;18.15;;;;;;;8.04;38.65;96027.44;5041618;28;20100;-69
2022/03/17 03:47:47;;;;;;;24.20;18.92;;;;;;;7.99;39.04;96025.22;5042278;28;20160;-66
2022/03/17 03:50:13;;;;;;;22.02;18.92;;;;;;;8.02;38.58;96032.03;5035622;28;20206;-63
2022/03/17 03:52:38;;;;;;;23.60;18.92;;;;;;;8.02;38.57;96029.38;5041847;28;20077;-65
2022/03/17 03:55:04;;;;;;;23.67;19.63;;;;;;;8.12;38.88;96034.59;5041745;28;20114;-66
2022/03/17 03:57:29;;;;;;;24.02;18.52;;;;;;;8.08;38.75;96041.19;5041647;28;20569;-65
2022/03/17 03:59:55;;;;;;;21.35;18.10;;;;;;;8.07;38.30;96039.53;5041951;28;20604;-67
2022/03/17 04:02:21;;;;;;;20.08;16.35;;;;;;;7.78;38.88;96047.56;5041258;28;20112;-66
2022/03/17 04:04:46;;;;;;;23.13;19.05;;;;;;;7.73;39.47;96047.16;5041351;28;20182;-66
2022/03/17 04:07:11;;;;;;;20.02;15.65;;;;;;;7.84;38.62;96040.84;5031333;28;20085;-67
2022/03/17 04:09:39;;;;;;;23.30;19.75;;;;;;;7.79;39.30;96037.81;5033253;28;20155;-68
2022/03/17 04:12:08;;;;;;;20.75;16.75;;;;;;;7.41;39.50;96045.78;5041584;28;20841;-66
2022/03/17 04:14:34;;;;;;;22.52;19.55;;;;;;;7.74;39.08;96038.22;5039105;28;20176;-66
2022/03/17 04:16:59;;;;;;;21.85;16.92;;;;;;;7.88;38.57;96034.25;5039863;28;20109;-67
2022/03/17 04:19:25;;;;;;;22.13;18.35;;;;;;;8.08;38.43;96051.81;5041290;28;20084;-66
2022/03/17 04:21:50;;;;;;;21.67;18.50;;;;;;;7.94;38.52;96045.22;5041107;28;20562;-66
2022/03/17 04:24:16;;;;;;;22.70;19.50;;;;;;;8.11;38.69;96055.00;5041198;28;20101;-64
2022/03/17 04:26:42;;;;;;;23.90;19.10;;;;;;;8.03;38.25;96057.59;5040821;28;20143;-65
2022/03/17 04:29:09;;;;;;;22.20;17.52;;;;;;;7.89;38.44;96053.66;5041103;28;20101;-68
2022/03/17 04:31:35;;;;;;;24.10;18.20;;;;;;;7.73;38.82;96054.25;5041576;28;20145;-66
2022/03/17 04:34:01;;;;;;;21.30;16.77;;;;;;;7.61;38.81;96057.13;5039426;28;20112;-65
2022/03/17 04:36:26;;;;;;;25.05;18.90;;;;;;;7.89;38.62;96056.28;5038790;28;20094;-67
2022/03/17 04:38:51;;;;;;;20.60;17.02;;;;;;;7.64;38.88;96055.97;5017509;28;20078;-66
2022/03/17 04:41:20;;;;;;;23.35;18.42;;;;;;;7.71;38.76;96066.81;5040757;28;20112;-65
2022/03/17 04:43:46;;;;;;;21.65;17.10;;;;;;;7.38;39.68;96076.06;5041237;28;20082;-65
2022/03/17 04:46:11;;;;;;;22.13;18.35;;;;;;;7.62;39.08;96069.38;5040640;28;20566;-66
2022/03/17 04:48:40;;;;;;;22.73;19.17;;;;;;;7.88;38.65;96078.47;5040643;28;20211;-65
2022/03/17 04:51:05;;;;;;;22.10;19.00;;;;;;;7.83;39.01;96081.59;5035360;28;20431;-66
2022/03/17 04:53:32;;;;;;;19.63;16.60;;;;;;;7.74;38.94;96088.56;5039126;28;20108;-66
2022/03/17 04:55:59;;;;;;;22.58;18.75;;;;;;;7.98;38.42;96089.84;5041130;28;20077;-66
2022/03/17 04:58:25;;;;;;;24.02;19.23;;;;;;;8.16;38.25;96095.16;5040672;28;20603;-66
2022/03/17 05:00:53;;;;;;;23.67;18.95;;;;;;;8.22;38.28;96088.41;5025714;28;20106;-67
2022/03/17 05:03:19;;;;;;;23.35;18.10;;;;;;;8.08;38.42;96099.53;4996020;28;20088;-65
2022/03/17 05:05:45;;;;;;;23.02;18.10;;;;;;;7.98;38.14;96103.09;5025260;28;20495;-66
2022/03/17 05:08:10;;;;;;;23.58;18.95;;;;;;;8.11;38.37;96104.56;5023958;28;20066;-66
2022/03/17 05:10:36;;;;;;;23.08;18.13;;;;;;;8.24;38.00;96099.72;5039022;28;20164;-65
2022/03/17 05:13:05;;;;;;;22.65;18.00;;;;;;;8.18;38.03;96100.31;5038341;28;20094;-65
2022/03/17 05:15:30;;;;;;;;;;;;;;;8.18;38.20;96111.78;5039901;28;20089;-66
2022/03/17 05:17:55;;;;;;;23.10;18.87;;;;;;;8.23;38.46;96118.44;5039246;28;19989;-67
2022/03/17 05:20:22;;;;;;;22.20;17.98;;;;;;;8.26;38.14;96124.28;5040221;28;20073;-64
2022/03/17 05:22:47;;;;;;;22.30;17.85;;;;;;;8.28;38.01;96126.78;5041113;28;20099;-65
2022/03/17 05:25:13;;;;;;;22.90;18.20;;;;;;;8.28;37.54;96124.97;5040590;28;20132;-66
2022/03/17 05:27:39;;;;;;;25.85;20.02;;;;;;;8.10;37.83;96117.00;5040666;28;20074;-65
2022/03/17 05:30:05;;;;;;;22.85;19.30;;;;;;;8.05;37.99;96125.41;5040214;28;20665;-66
2022/03/17 05:32:31;;;;;;;23.52;17.35;;;;;;;8.13;38.17;96134.44;5040299;28;20305;-66
2022/03/17 05:34:56;;;;;;;22.90;18.25;;;;;;;8.22;38.13;96130.88;5040788;28;20088;-67
2022/03/17 05:37:21;;;;;;;24.20;19.15;;;;;;;8.16;38.41;96134.13;5040040;28;20602;-65
2022/03/17 05:39:47;;;;;;;23.83;18.60;;;;;;;8.18;38.08;96142.75;5017807;28;20081;-66
2022/03/17 05:42:12;;;;;;;21.98;18.80;;;;;;;8.27;37.59;96141.84;5039895;28;20516;-67
2022/03/17 05:44:38;;;;;;;21.45;17.85;;;;;;;8.28;37.62;96143.53;5040404;28;20109;-65
2022/03/17 05:47:04;;;;;;;23.23;18.75;;;;;;;8.34;37.48;96143.91;5040437;28;20083;-67
2022/03/17 05:49:30;;;;;;;22.30;18.35;;;;;;;8.34;37.88;96151.88;5043207;28;20105;-66
2022/03/17 05:51:56;;;;;;;25.00;19.48;;;;;;;8.24;38.00;96158.09;5032022;28;20652;-64
2022/03/17 05:54:21;;;;;;;22.45;18.98;;;;;;;8.33;37.35;96161.63;5043795;28;20106;-68
2022/03/17 05:56:46;;;;;;;25.58;19.70;;;;;;;8.43;37.56;96167.72;5043038;28;20484;-67
2022/03/17 05:59:12;;;;;;;24.67;18.08;;;;;;;8.43;37.88;96164.22;5043765;28;20533;-65
2022/03/17 06:01:37;;;;;;;23.27;18.77;;;;;;;8.47;37.31;96162.13;5043358;28;20110;-65
2022/03/17 06:04:03;;;;;;;24.80;19.20;;;;;;;8.45;37.42;96164.91;5043812;28;20139;-66
2022/03/17 06:06:28;;;;;;;21.98;18.77;;;;;;;8.31;38.06;96179.53;5038820;28;20167;-65
2022/03/17 06:08:54;;;;;;;21.48;17.23;;;;;;;8.40;38.13;96186.59;5030445;28;20121;-66
2022/03/17 06:11:19;;;;;;;27.05;20.60;;;;;;;8.28;38.14;96190.44;5042963;28;20105;-67
2022/03/17 06:13:44;;;;;;;23.85;19.17;;;;;;;8.28;37.99;96191.28;5041185;28;20524;-68
2022/03/17 06:16:10;;;;;;;22.75;18.70;;;;;;;8.42;37.72;96191.75;5041498;28;20093;-66
2022/03/17 06:18:35;;;;;;;25.63;21.42;;;;;;;8.35;37.67;96201.28;5043384;28;20129;-66
2022/03/17 06:21:01;;;;;;;22.80;19.48;;;;;;;8.25;38.31;96204.00;5043174;28;20286;-66
2022/03/17 06:23:26;;;;;;;23.63;19.42;;;;;;;8.26;38.37;96211.81;5043429;28;20085;-68
2022/03/17 06:25:53;;;;;;;22.00;18.48;;;;;;;8.45;38.28;96210.03;5042840;28;20126;-66
2022/03/17 06:28:18;;;;;;;25.10;19.80;;;;;;;8.59;37.43;96210.47;5042577;28;20135;-66
2022/03/17 06:30:44;;;;;;;24.13;20.58;;;;;;;8.51;37.56;96205.94;5043454;28;20097;-66
2022/03/17 06:33:09;;;;;;;23.90;19.67;;;;;;;8.37;38.20;96213.41;5041575;28;20095;-64
2022/03/17 06:35:35;;;;;;;24.63;19.15;;;;;;;8.62;37.96;96219.00;5043517;28;20097;-64
2022/03/17 06:38:01;;;;;;;21.75;18.77;;;;;;;8.75;37.56;96220.44;5032892;28;20101;-65
2022/03/17 06:40:27;;;;;;;23.15;18.38;;;;;;;8.86;37.42;96219.34;5028443;28;20593;-64
2022/03/17 06:42:53;;;;;;;23.85;19.15;;;;;;;8.96;37.31;96217.50;5041457;28;20125;-65
2022/03/17 06:45:18;;;;;;;23.30;18.48;;;;;;;9.04;37.06;96217.56;5042918;28;20134;-66
2022/03/17 06:47:44;;;;;;;21.67;17.88;;;;;;;9.06;36.61;96220.91;5042862;28;20668;-66
2022/03/17 06:50:10;;;;;;;21.85;18.42;;;;;;;9.07;36.75;96225.22;5036932;28;20223;-67
2022/03/17 06:52:35;;;;;;;23.98;17.63;;;;;;;9.04;37.16;96230.84;5041276;28;20080;-67
2022/03/17 06:55:01;;;;;;;19.73;17.08;;;;;;;9.06;36.86;96236.84;5042573;28;20085;-66
2022/03/17 06:57:26;;;;;;;23.92;18.85;;;;;;;8.99;36.87;96245.56;5041899;28;20092;-66
2022/03/17 06:59:52;;;;;;;25.85;20.65;;;;;;;8.77;37.05;96251.16;5042471;28;20151;-64
2022/03/17 07:02:17;;;;;;;23.15;19.40;;;;;;;8.96;36.71;96246.72;5042138;28;20110;-67
2022/03/17 07:04:43;;;;;;;23.48;20.10;;;;;;;8.93;36.66;96254.94;5040664;28;20103;-65
2022/03/17 07:07:08;;;;;;;26.60;20.33;;;;;;;9.04;36.66;96253.91;5032684;28;20076;-65
2022/03/17 07:09:34;;;;;;;26.73;19.23;;;;;;;9.08;36.82;96263.25;5035384;28;20131;-66
2022/03/17 07:12:00;;;;;;;21.75;17.70;;;;;;;9.13;36.35;96260.97;5041932;28;20831;-65
2022/03/17 07:14:25;;;;;;;23.52;20.08;;;;;;;9.27;36.15;96261.41;5040112;28;20098;-64
2022/03/17 07:16:51;;;;;;;24.05;20.23;;;;;;;9.38;36.49;96263.00;5040085;28;20170;-64
2022/03/17 07:19:17;;;;;;;22.77;18.75;;;;;;;9.38;35.86;96255.03;5042586;28;20452;-66
2022/03/17 07:21:42;;;;;;;25.98;21.30;;;;;;;9.24;35.74;96267.88;5041690;28;20116;-67
2022/03/17 07:24:09;;;;;;;28.17;20.88;;;;;;;8.57;37.10;96279.66;5042168;28;20133;-66
2022/03/17 07:26:35;;;;;;;22.63;19.25;;;;;;;8.74;36.95;96285.97;5041740;28;20602;-67
2022/03/17 07:29:02;;;;;;;25.73;19.90;;;;;;;9.00;36.68;96281.75;5041688;28;20101;-65
2022/03/17 07:31:27;;;;;;;23.85;18.55;;;;;;;9.10;36.50;96284.34;5041982;28;20417;-66
2022/03/17 07:33:53;;;;;;;21.58;17.70;;;;;;;9.18;36.16;96287.09;5041673;28;20569;-65
2022/03/17 07:36:19;;;;;;;22.17;18.75;;;;;;;9.24;36.88;96290.97;5041609;28;20659;-66
2022/03/17 07:38:44;;;;;;;20.48;17.60;;;;;;;9.27;36.86;96291.47;5022023;28;20160;-64
2022/03/17 07:41:10;;;;;;;21.73;18.55;;;;;;;9.30;36.52;96301.81;5038470;28;20171;-64
2022/03/17 07:43:35;;;;;;;21.38;17.35;;;;;;;9.32;36.39;96305.13;5041603;28;20077;-67
2022/03/17 07:46:00;;;;;;;23.30;19.50;;;;;;;9.19;36.82;96310.81;5040960;28;20166;-67
2022/03/17 07:48:26;;;;;;;27.67;21.83;;;;;;;9.48;36.52;96313.41;5041266;28;20089;-64
2022/03/17 07:50:51;;;;;;;23.52;19.08;;;;;;;9.43;36.73;96316.50;5034845;28;20135;-64
2022/03/17 07:53:17;;;;;;;26.30;20.95;;;;;;;9.35;37.38;96319.09;5041354;28;20826;-65
2022/03/17 07:55:43;;;;;;;24.63;19.85;;;;;;;9.44;37.40;96326.16;5041720;28;20116;-65
2022/03/17 07:58:10;;;;;;;31.08;22.77;;;;;;;9.48;37.38;96334.66;5041209;28;20106;-66
2022/03/17 08:00:36;;;;;;;28.73;21.87;;;;;;;9.42;38.02;96342.25;5039519;28;20147;-65
2022/03/17 08:03:04;;;;;;;26.73;21.45;;;;;;;9.37;37.95;96338.38;5041301;28;20073;-66
2022/03/17 08:05:29;;;;;;;28.75;22.13;;;;;;;9.26;38.28;96350.09;5041040;28;20487;-66
2022/03/17 08:07:55;;;;;;;25.35;21.92;;;;;;;9.17;39.19;96357.97;5025700;28;20074;-65
2022/03/17 08:10:20;;;;;;;27.02;21.52;;;;;;;9.07;39.81;96358.03;5038644;28;20109;-65
2022/03/17 08:12:46;;;;;;;28.83;22.17;;;;;;;8.94;40.29;96369.00;5039874;28;20116;-64
2022/03/17 08:15:12;;;;;;;31.77;22.23;;;;;;;8.81;41.16;96372.00;5039927;28;20086;-65
2022/03/17 08:17:38;;;;;;;32.65;24.58;;;;;;;8.59;41.82;96383.84;5039503;28;20101;-66
2022/03/17 08:20:05;;;;;;;29.67;22.77;;;;;;;8.39;42.43;96377.78;5041109;28;20081;-68
2022/03/17 08:22:30;;;;;;;29.27;23.05;;;;;;;8.12;43.51;96382.88;5040603;28;20098;-63
2022/03/17 08:24:56;;;;;;;28.77;22.33;;;;;;;8.07;44.27;96379.84;5040558;28;20174;-65
2022/03/17 08:27:21;;;;;;;30.38;23.00;;;;;;;8.20;44.20;96376.03;5040698;28;20081;-65
2022/03/17 08:29:48;;;;;;;30.10;24.15;;;;;;;8.10;44.16;96373.41;5039087;28;20105;-64
2022/03/17 08:32:13;;;;;;;32.85;24.90;;;;;;;8.03;45.15;96376.63;5040614;28;20281;-67
2022/03/17 08:34:39;;;;;;;31.77;24.83;;;;;;;7.81;45.68;96380.44;5039996;28;20101;-66
2022/03/17 08:37:04;;;;;;;32.33;22.83;;;;;;;8.07;45.25;96386.94;5040163;28;20112;-65
2022/03/17 08:39:29;;;;;;;28.38;22.05;;;;;;;7.77;46.00;96387.84;5018680;28;20077;-64
2022/03/17 08:41:56;;;;;;;25.90;20.23;;;;;;;7.49;46.87;96387.69;5039971;28;20094;-66
2022/03/17 08:44:22;;;;;;;28.13;20.48;;;;;;;6.91;48.48;96394.59;5039950;28;20127;-65
2022/03/17 08:49:31;;;;;;;24.30;19.15;;;;;;;6.70;49.68;96400.78;5040071;28;20233;-65
2022/03/17 08:51:59;;;;;;;23.13;18.05;;;;;;;6.02;51.97;96417.97;5034721;28;20089;-65
2022/03/17 08:54:26;;;;;;;24.75;18.17;;;;;;;5.71;52.72;96415.25;5040253;28;20115;-65
2022/03/17 08:57:03;;;;;;;23.65;18.15;;;;;;;5.94;52.60;96401.91;5039897;28;20109;-67
2022/03/17 08:59:30;;;;;;;22.38;16.95;;;;;;;5.52;54.14;96415.94;5040290;28;20081;-65
2022/03/17 09:01:56;;;;;;;15.77;12.02;;;;;;;5.09;55.56;96419.31;5039822;28;20101;-66
2022/03/17 09:04:22;;;;;;;20.95;12.80;;;;;;;4.56;57.83;96422.59;5040014;28;20492;-66
2022/03/17 09:06:47;;;;;;;15.27;11.50;;;;;;;4.54;57.76;96425.34;5035377;28;20089;-65
2022/03/17 09:09:13;;;;;;;14.57;10.73;;;;;;;4.13;59.15;96430.22;5012834;28;20121;-67
2022/03/17 09:11:39;;;;;;;12.95;8.93;;;;;;;3.97;60.20;96434.97;5000508;28;20095;-65
2022/03/17 09:14:04;;;;;;;12.40;8.55;;;;;;;3.59;61.65;96445.63;5026391;28;20160;-67
2022/03/17 09:16:30;;;;;;;13.68;9.88;;;;;;;2.23;65.18;96451.63;5038467;28;20100;-64
2022/03/17 09:18:56;;;;;;;14.45;8.80;;;;;;;2.27;67.20;96455.72;5040549;28;20597;-67
2022/03/17 09:21:22;;;;;;;13.18;8.27;;;;;;;1.94;67.82;96467.59;5039382;28;20105;-65
2022/03/17 09:23:47;;;;;;;183.65;13.15;;;;;;;1.41;70.65;96463.09;5042336;28;20085;-67
2022/03/17 09:26:13;;;;;;;86.72;8.95;;;;;;;1.34;71.44;96479.25;5000895;28;20534;-66
2022/03/17 09:28:38;;;;;;;115.25;8.70;;;;;;;1.57;70.60;96476.94;4989054;28;20093;-67
2022/03/17 09:31:03;;;;;;;76.68;7.57;;;;;;;1.15;72.77;96491.84;5000773;28;20379;-65
2022/03/17 09:33:29;;;;;;;301.15;13.93;;;;;;;1.35;72.04;96477.44;4996923;28;20097;-64
2022/03/17 09:35:55;;;;;;;279.00;11.85;;;;;;;1.23;72.38;96482.53;5003936;28;20490;-67
2022/03/17 09:38:21;;;;;;;264.52;12.32;;;;;;;0.97;73.14;96490.31;5001348;28;20177;-66
2022/03/17 09:40:46;;;;;;;109.57;8.93;;;;;;;0.96;72.30;96488.59;5003363;28;20113;-66
2022/03/17 09:43:18;;;;;;;105.70;10.85;;;;;;;0.82;73.03;96486.84;4994254;28;20082;-65
2022/03/17 09:45:45;;;;;;;19.45;10.48;;;;;;;1.04;72.15;96480.25;5000863;28;20422;-65
2022/03/17 09:48:11;;;;;;;18.67;10.63;;;;;;;0.90;71.69;96503.88;5001665;28;20133;-66
2022/03/17 09:50:37;;;;;;;11.75;8.30;;;;;;;0.57;72.70;96493.59;4998461;28;20574;-63
2022/03/17 09:53:02;;;;;;;12.95;8.10;;;;;;;0.64;72.98;96493.22;5001887;28;20110;-65
2022/03/17 09:55:28;;;;;;;15.00;10.40;;;;;;;0.68;72.13;96494.72;5003538;28;20108;-64
2022/03/17 09:57:53;;;;;;;11.32;7.72;;;;;;;0.98;71.53;96491.97;4995045;28;20757;-65
2022/03/17 10:00:19;;;;;;;13.55;7.00;;;;;;;1.17;71.11;96505.72;5003229;28;20109;-66
2022/03/17 10:02:44;;;;;;;10.65;7.35;;;;;;;1.42;69.88;96505.00;5029974;28;20128;-67
2022/03/17 10:05:11;;;;;;;12.18;8.38;;;;;;;1.31;69.88;96512.69;5036586;28;20132;-67
2022/03/17 10:07:36;;;;;;;13.75;9.40;;;;;;;0.87;71.69;96523.28;5030561;28;20530;-68
2022/03/17 10:10:02;;;;;;;15.52;9.07;;;;;;;0.38;73.53;96511.38;5037184;28;20183;-69
2022/03/17 10:12:30;;;;;;;11.93;7.80;;;;;;;0.62;73.05;96518.69;5036270;28;20109;-67
2022/03/17 10:14:56;;;;;;;31.48;11.75;;;;;;;-0.04;74.59;96525.13;4986626;28;20089;-67
2022/03/17 10:17:34;;;;;;;29.42;9.43;;;;;;;-0.03;75.83;96529.41;4987556;28;20098;-68
2022/03/17 10:20:17;;;;;;;15.27;6.85;;;;;;;0.50;73.96;96526.34;5001140;28;20078;-69
2022/03/17 10:22:50;;;;;;;16.83;6.25;;;;;;;0.55;74.00;96523.47;5022626;28;20109;-69
2022/03/17 10:25:24;;;;;;;52.47;9.75;;;;;;;0.46;73.07;96519.59;5020321;28;20122;-70
2022/03/17 10:27:49;;;;;;;33.53;8.32;;;;;;;0.59;73.53;96536.25;5022982;28;20176;-69
2022/03/17 10:30:24;;;;;;;95.50;13.70;;;;;;;-0.13;75.74;96534.34;5012322;28;20582;-68
2022/03/17 10:33:03;;;;;;;86.28;14.05;;;;;;;-0.05;76.15;96536.53;5018008;28;20105;-69
2022/03/17 10:35:34;;;;;;;66.68;10.23;;;;;;;-0.09;76.08;96541.13;5000818;28;20077;-70
2022/03/17 10:38:08;;;;;;;187.65;12.88;;;;;;;0.22;75.68;96556.81;5019758;28;20649;-70
2022/03/17 10:40:34;;;;;;;63.63;9.65;;;;;;;0.62;73.80;96547.50;5035783;28;20076;-69
2022/03/17 10:43:18;;;;;;;63.40;8.48;;;;;;;0.98;72.56;96554.06;5040083;28;20089;-69
2022/03/17 10:45:44;;;;;;;125.95;11.57;;;;;;;0.98;72.38;96554.91;5042273;28;20201;-67
2022/03/17 10:48:09;;;;;;;132.30;13.88;;;;;;;-0.00;75.01;96578.16;5042409;28;20156;-68
2022/03/17 10:50:45;;;;;;;20.00;10.02;;;;;;;0.03;74.80;96555.25;5033640;28;20110;-68
2022/03/17 10:53:10;;;;;;;17.13;11.20;;;;;;;-0.17;75.05;96569.47;5042322;28;20101;-68
2022/03/17 10:55:36;;;;;;;14.07;8.18;;;;;;;-0.10;75.30;96577.84;5037079;28;20112;-68
2022/03/17 10:58:14;;;;;;;15.68;10.00;;;;;;;-0.37;76.40;96592.38;5041821;28;20498;-67
2022/03/17 11:00:53;;;;;;;19.83;10.48;;;;;;;-0.60;75.87;96609.38;5027172;28;20549;-69
2022/03/17 11:03:20;;;;;;;12.00;7.65;;;;;;;-0.39;75.81;96590.78;4995085;28;20565;-69
2022/03/17 11:05:50;;;;;;;18.38;11.10;;;;;;;-0.35;75.26;96584.44;4992986;28;20306;-53
2022/03/17 11:08:16;;;;;;;12.30;8.07;;;;;;;-0.41;75.63;96605.75;4995916;28;20170;-69
2022/03/17 11:10:41;;;;;;;17.85;9.95;;;;;;;-0.46;76.38;96604.22;5001319;28;20534;-66
2022/03/17 11:13:11;;;;;;;8.32;5.43;;;;;;;0.28;73.76;96598.34;5001421;28;20102;-69
2022/03/17 11:15:42;;;;;;;11.40;7.05;;;;;;;0.67;71.38;96597.88;5002407;28;20162;-69
2022/03/17 11:18:12;;;;;;;13.02;7.70;;;;;;;0.18;72.18;96619.00;4997189;28;20188;-69
2022/03/17 11:20:37;;;;;;;10.82;6.82;;;;;;;0.17;72.74;96619.09;5027618;28;20105;-67
2022/03/17 11:23:35;;;;;;;8.98;6.00;;;;;;;0.41;72.14;96621.25;5019864;28;20298;-68
2022/03/17 11:26:00;;;;;;;13.90;8.02;;;;;;;0.09;73.19;96632.63;5021417;28;20525;-68
2022/03/17 11:28:33;;;;;;;6.72;4.88;;;;;;;0.50;72.72;96622.47;5021444;28;20081;-68
2022/03/17 11:31:03;;;;;;;6.45;4.05;;;;;;;0.81;71.02;96623.25;5021716;28;20222;-68
2022/03/17 11:33:31;;;;;;;8.13;5.05;;;;;;;0.82;70.20;96623.19;5019954;28;20132;-68